Time;durP1;ratioP1;P1;durP2;ratioP2;P2;SDS_P1;SDS_P2;PMS_P1;PMS_P2;Temp;Humidity;BMP_temperature;BMP_pressure;BME280_temperature;BME280_humidity;BME280_pressure;Samples;Min_cycle;Max_cycle;Signal;HPM_P1;HPM_P2
2021/09/18 00:00:09;;;;;;;;;31.00;29.00;;;;;16.32;73.99;100971.00;5062371;28;45322;-82
2021/09/18 00:02:34;;;;;;;;;31.33;30.33;;;;;16.27;73.86;100975.13;5062186;28;45401;-82
2021/09/18 00:05:00;;;;;;;;;29.00;28.00;;;;;16.24;73.83;100980.06;5060691;28;47727;-82
2021/09/18 00:07:25;;;;;;;;;33.00;30.00;;;;;16.23;74.10;100979.28;5062087;28;45233;-82
2021/09/18 00:09:50;;;;;;;;;28.67;27.33;;;;;16.19;73.94;100972.66;5062036;28;45483;-82
2021/09/18 00:12:16;;;;;;;;;32.00;30.00;;;;;16.19;74.25;100969.97;5060771;28;46034;-82
2021/09/18 00:14:41;;;;;;;;;34.00;31.00;;;;;16.17;74.03;100963.16;5061866;28;46534;-82
2021/09/18 00:17:07;;;;;;;;;29.00;28.67;;;;;16.11;74.17;100957.63;5062170;28;45354;-83
2021/09/18 00:19:34;;;;;;;;;30.33;29.00;;;;;16.14;73.83;100961.72;5062156;28;45327;-82
2021/09/18 00:22:00;;;;;;;;;29.67;28.33;;;;;16.12;73.82;100953.06;5061858;28;45309;-83
2021/09/18 00:24:25;;;;;;;;;28.00;27.00;;;;;16.07;74.01;100953.66;5061704;28;45341;-83
2021/09/18 00:26:50;;;;;;;;;31.33;29.00;;;;;16.05;74.29;100949.56;5061890;28;45277;-82
2021/09/18 00:29:16;;;;;;;;;26.00;26.00;;;;;16.00;73.72;100953.69;5062154;28;45342;-83
2021/09/18 00:31:42;;;;;;;;;31.00;29.00;;;;;15.95;74.44;100958.78;5081830;28;45222;-83
2021/09/18 00:34:07;;;;;;;;;33.00;29.67;;;;;15.92;73.91;100961.06;5080538;28;45305;-83
2021/09/18 00:36:33;;;;;;;;;30.33;28.00;;;;;15.85;74.22;100958.38;5079889;28;45281;-82
2021/09/18 00:38:58;;;;;;;;;31.33;29.33;;;;;15.83;74.54;100957.78;5081455;28;45240;-83
2021/09/18 00:41:23;;;;;;;;;30.00;28.33;;;;;15.82;74.28;100956.09;5081929;28;45212;-82
2021/09/18 00:43:54;;;;;;;;;29.00;27.33;;;;;15.82;74.48;100959.59;5081836;28;45388;-83
2021/09/18 00:46:19;;;;;;;;;27.67;27.67;;;;;15.77;74.28;100952.19;5080289;28;45329;-82
2021/09/18 00:48:45;;;;;;;;;26.00;26.00;;;;;15.73;74.41;100953.63;5082077;28;45315;-83
2021/09/18 00:51:11;;;;;;;;;31.33;29.00;;;;;15.70;75.02;100948.66;5080191;28;46099;-83
2021/09/18 00:53:36;;;;;;;;;28.33;27.00;;;;;15.66;74.83;100950.09;5081556;28;45244;-83
2021/09/18 00:56:02;;;;;;;;;32.67;28.00;;;;;15.60;74.76;100943.72;5080240;28;45251;-83
2021/09/18 00:58:27;;;;;;;;;30.00;27.33;;;;;15.61;75.22;100948.03;5081784;28;45502;-83
2021/09/18 01:00:52;;;;;;;;;27.00;26.33;;;;;15.56;74.75;100930.94;5080257;28;47412;-83
2021/09/18 01:03:18;;;;;;;;;28.00;27.67;;;;;15.64;74.88;100944.94;5081499;28;46157;-83
2021/09/18 01:05:43;;;;;;;;;26.67;26.00;;;;;15.63;75.15;100939.78;5081625;28;45153;-83
2021/09/18 01:08:11;;;;;;;;;29.00;29.00;;;;;15.64;74.99;100941.44;5081405;28;45195;-83
2021/09/18 01:10:37;;;;;;;;;25.33;24.33;;;;;15.62;75.21;100943.47;5081410;28;45344;-83
2021/09/18 01:13:04;;;;;;;;;29.67;29.00;;;;;15.60;75.02;100948.25;5080066;28;45368;-83
2021/09/18 01:15:32;;;;;;;;;29.33;29.33;;;;;15.49;75.10;100923.69;5081211;28;45436;-83
2021/09/18 01:17:58;;;;;;;;;28.33;26.33;;;;;15.59;75.16;100946.59;5081406;28;45280;-83
2021/09/18 01:20:25;;;;;;;;;29.00;27.00;;;;;15.53;75.30;100932.97;5079794;28;46841;-82
2021/09/18 01:22:52;;;;;;;;;28.00;28.00;;;;;15.55;75.05;100942.66;5079519;28;45434;-83
2021/09/18 01:25:17;;;;;;;;;29.33;28.00;;;;;15.51;74.94;100943.03;5081014;28;45296;-83
2021/09/18 01:27:44;;;;;;;;;28.00;27.33;;;;;15.50;75.06;100933.38;5079878;28;45348;-82
2021/09/18 01:30:15;;;;;;;;;27.33;27.33;;;;;15.49;75.39;100931.72;5073794;28;45322;-83
2021/09/18 01:32:41;;;;;;;;;29.00;28.00;;;;;15.52;75.19;100943.88;5060512;28;45224;-83
2021/09/18 01:35:07;;;;;;;;;27.00;26.00;;;;;15.51;75.22;100939.56;5059108;28;45541;-83
2021/09/18 01:37:32;;;;;;;;;25.33;24.67;;;;;15.51;75.46;100940.38;5059299;28;45342;-83
2021/09/18 01:39:58;;;;;;;;;25.67;25.67;;;;;15.49;75.28;100934.41;5060687;28;45299;-83
2021/09/18 01:42:23;;;;;;;;;26.33;25.00;;;;;15.44;75.48;100930.69;5060757;28;45310;-83
2021/09/18 01:44:48;;;;;;;;;28.00;27.00;;;;;15.45;75.11;100940.38;5060537;28;46159;-83
2021/09/18 01:47:14;;;;;;;;;22.00;22.00;;;;;15.44;75.14;100934.19;5060680;28;45478;-83
2021/09/18 01:49:39;;;;;;;;;26.00;26.00;;;;;15.35;75.44;100919.31;5060259;28;45367;-83
2021/09/18 01:52:18;;;;;;;;;26.00;26.00;;;;;15.38;74.71;100935.81;5060303;28;45274;-82
2021/09/18 01:54:44;;;;;;;;;26.00;26.00;;;;;15.37;74.92;100944.88;5060097;28;45235;-83
2021/09/18 01:57:09;;;;;;;;;25.67;25.00;;;;;15.31;75.38;100942.16;5060476;28;45212;-82
2021/09/18 01:59:35;;;;;;;;;23.33;23.33;;;;;15.30;75.34;100945.88;5042208;28;46186;-83
2021/09/18 02:02:01;;;;;;;;;22.33;22.00;;;;;15.26;75.23;100942.78;5060285;28;45191;-82
2021/09/18 02:04:26;;;;;;;;;25.00;24.33;;;;;15.26;75.50;100940.09;5060319;28;45434;-83
2021/09/18 02:06:51;;;;;;;;;27.00;24.00;;;;;15.22;75.56;100937.00;5060400;28;45318;-82
2021/09/18 02:09:17;;;;;;;;;24.33;23.00;;;;;15.23;75.79;100937.81;5060006;28;45320;-83
2021/09/18 02:11:42;;;;;;;;;23.67;23.00;;;;;15.25;75.67;100935.78;5060219;28;46028;-83
2021/09/18 02:14:08;;;;;;;;;25.67;25.00;;;;;15.25;75.66;100928.56;5060110;28;45382;-83
2021/09/18 02:16:33;;;;;;;;;20.67;20.67;;;;;15.27;75.91;100933.72;5060345;28;45331;-83
2021/09/18 02:18:58;;;;;;;;;25.00;25.00;;;;;15.25;75.40;100941.13;5060111;28;45328;-82
2021/09/18 02:21:24;;;;;;;;;25.33;23.67;;;;;15.23;75.71;100937.81;5058355;28;47186;-83
2021/09/18 02:23:49;;;;;;;;;25.00;22.00;;;;;15.12;75.80;100932.00;5058545;28;45398;-83
2021/09/18 02:26:15;;;;;;;;;26.67;26.67;;;;;15.09;76.51;100937.75;5058750;28;45343;-82
2021/09/18 02:28:40;;;;;;;;;22.00;22.00;;;;;14.97;76.31;100929.47;5060004;28;45493;-83
2021/09/18 02:31:06;;;;;;;;;26.00;23.67;;;;;14.97;76.46;100931.34;5073479;28;47197;-83
2021/09/18 02:33:31;;;;;;;;;23.00;23.00;;;;;14.92;76.90;100931.09;5078685;28;45934;-83
2021/09/18 02:35:57;;;;;;;;;22.33;22.33;;;;;14.86;77.22;100930.06;5080091;28;46162;-83
2021/09/18 02:38:22;;;;;;;;;23.33;22.67;;;;;14.79;77.29;100922.00;5079807;28;45236;-83
2021/09/18 02:40:52;;;;;;;;;20.00;18.00;;;;;14.74;77.67;100919.88;5078563;28;46142;-83
2021/09/18 02:43:18;;;;;;;;;29.33;26.00;;;;;14.77;76.88;100924.84;5080129;28;45305;-83
2021/09/18 02:45:43;;;;;;;;;22.33;21.67;;;;;14.81;76.92;100921.81;5078440;28;45361;-83
2021/09/18 02:48:09;;;;;;;;;25.33;25.33;;;;;14.84;77.31;100935.59;5078673;28;47836;-83
2021/09/18 02:50:34;;;;;;;;;25.33;25.33;;;;;14.84;77.18;100922.22;5080004;28;45340;-82
2021/09/18 02:53:00;;;;;;;;;24.33;24.33;;;;;14.94;77.26;100924.53;5079570;28;45285;-82
2021/09/18 02:55:25;;;;;;;;;24.67;24.00;;;;;14.94;77.18;100916.53;5078637;28;45286;-82
2021/09/18 02:57:50;;;;;;;;;24.33;23.67;;;;;14.97;76.97;100917.97;5078595;28;45805;-82
2021/09/18 03:00:16;;;;;;;;;22.67;22.67;;;;;15.00;76.83;100917.56;5078957;28;45936;-82
2021/09/18 03:02:42;;;;;;;;;25.00;23.00;;;;;15.00;76.57;100913.03;5083619;28;45395;-83
2021/09/18 03:05:09;;;;;;;;;23.67;23.67;;;;;14.98;76.69;100909.75;5083673;28;45219;-82
2021/09/18 03:07:34;;;;;;;;;24.00;22.00;;;;;14.97;76.87;100908.06;5083153;28;45304;-83
2021/09/18 03:10:00;;;;;;;;;23.67;23.67;;;;;14.93;76.30;100911.38;5083163;28;46111;-83
2021/09/18 03:12:25;;;;;;;;;23.67;23.67;;;;;14.86;76.50;100906.81;5082004;28;45330;-82
2021/09/18 03:14:51;;;;;;;;;24.00;23.33;;;;;14.93;76.74;100916.72;5082051;28;45201;-82
2021/09/18 03:17:16;;;;;;;;;23.00;22.33;;;;;14.89;76.61;100911.75;5083447;28;45200;-82
2021/09/18 03:19:41;;;;;;;;;22.33;21.33;;;;;14.93;76.55;100919.41;5083173;28;46028;-82
2021/09/18 03:22:07;;;;;;;;;23.67;23.00;;;;;14.95;76.63;100920.00;5083020;28;45463;-83
2021/09/18 03:24:32;;;;;;;;;25.33;23.67;;;;;14.97;76.33;100929.47;5083142;28;45298;-83
2021/09/18 03:26:58;;;;;;;;;21.33;21.00;;;;;14.95;76.58;100920.00;5083139;28;45375;-82
2021/09/18 03:29:24;;;;;;;;;20.00;19.67;;;;;14.97;76.54;100915.28;5082070;28;45276;-82
2021/09/18 03:31:50;;;;;;;;;21.00;21.00;;;;;14.97;76.08;100916.09;5062587;28;45353;-82
2021/09/18 03:34:15;;;;;;;;;26.00;23.00;;;;;14.97;76.55;100916.09;5062471;28;45280;-82
2021/09/18 03:36:40;;;;;;;;;23.00;23.00;;;;;14.97;75.94;100918.78;5062490;28;45378;-82
2021/09/18 03:39:06;;;;;;;;;19.00;17.67;;;;;14.97;76.23;100918.78;5061181;28;47129;-82
2021/09/18 03:41:31;;;;;;;;;21.67;21.67;;;;;14.98;75.94;100908.91;5062649;28;45507;-82
2021/09/18 03:43:57;;;;;;;;;21.67;20.67;;;;;14.99;76.40;100908.69;5062724;28;45503;-82
2021/09/18 03:46:22;;;;;;;;;22.00;22.00;;;;;14.99;76.05;100902.50;5062364;28;45408;-82
2021/09/18 03:48:47;;;;;;;;;20.33;18.00;;;;;14.98;75.83;100901.72;5062408;28;46529;-83
2021/09/18 03:51:13;;;;;;;;;21.33;20.33;;;;;14.98;75.97;100899.03;5062365;28;45224;-82
2021/09/18 03:53:39;;;;;;;;;21.00;20.67;;;;;14.96;76.04;100894.88;5062337;28;45182;-83
2021/09/18 03:56:06;;;;;;;;;20.00;18.67;;;;;14.96;75.75;100897.56;5062342;28;45217;-82
2021/09/18 03:58:31;;;;;;;;;19.00;19.00;;;;;14.95;76.33;100901.28;5062202;28;47257;-82
2021/09/18 04:00:56;;;;;;;;;21.00;20.00;;;;;14.86;76.04;100887.25;5062270;28;45359;-82
2021/09/18 04:03:22;;;;;;;;;19.00;19.00;;;;;14.91;76.26;100900.03;5060956;28;45260;-83
2021/09/18 04:05:47;;;;;;;;;18.00;18.00;;;;;14.91;76.09;100908.06;5062209;28;45307;-82
2021/09/18 04:08:12;;;;;;;;;19.00;17.67;;;;;14.87;75.89;100903.09;5061944;28;45326;-82
2021/09/18 04:10:38;;;;;;;;;17.33;17.33;;;;;14.83;76.08;100904.53;5062181;28;45354;-82
2021/09/18 04:13:04;;;;;;;;;17.33;17.33;;;;;14.79;75.81;100900.59;5062356;28;45286;-82
2021/09/18 04:15:30;;;;;;;;;19.00;18.33;;;;;14.80;75.86;100901.41;5060594;28;47079;-82
2021/09/18 04:17:56;;;;;;;;;20.00;18.67;;;;;14.84;75.97;100902.66;5061880;28;46323;-82
2021/09/18 04:20:21;;;;;;;;;21.00;19.33;;;;;14.86;75.67;100911.31;5061972;28;45309;-83
2021/09/18 04:22:46;;;;;;;;;19.00;19.00;;;;;14.87;75.43;100907.63;5060647;28;45315;-83
2021/09/18 04:25:12;;;;;;;;;22.00;20.67;;;;;14.82;75.61;100896.69;5061998;28;45544;-82
2021/09/18 04:27:38;;;;;;;;;19.67;18.33;;;;;14.82;75.99;100905.56;5061843;28;46087;-83
2021/09/18 04:30:04;;;;;;;;;17.00;16.67;;;;;14.79;75.79;100908.63;5066653;28;45309;-82
2021/09/18 04:32:30;;;;;;;;;18.67;18.67;;;;;14.84;75.71;100913.34;5080821;28;45272;-83
2021/09/18 04:34:55;;;;;;;;;18.00;18.00;;;;;14.81;75.87;100903.09;5080177;28;47010;-81
2021/09/18 04:37:20;;;;;;;;;20.00;17.00;;;;;14.84;75.79;100906.16;5080221;28;46949;-82
2021/09/18 04:39:46;;;;;;;;;19.00;19.00;;;;;14.83;75.69;100904.53;5082054;28;45417;-82
2021/09/18 04:42:11;;;;;;;;;16.00;16.00;;;;;14.87;75.72;100921.00;5082210;28;45280;-82
2021/09/18 04:44:36;;;;;;;;;17.33;17.33;;;;;14.89;75.50;100917.13;5081679;28;45515;-82
2021/09/18 04:47:02;;;;;;;;;17.33;17.33;;;;;14.86;75.60;100914.00;5081771;28;46463;-82
2021/09/18 04:49:27;;;;;;;;;18.67;16.67;;;;;14.85;75.45;100909.69;5080338;28;45267;-82
2021/09/18 04:51:53;;;;;;;;;16.00;16.00;;;;;14.90;75.58;100933.97;5081851;28;45248;-82
2021/09/18 04:54:18;;;;;;;;;19.00;19.00;;;;;14.89;75.55;100933.16;5080049;28;46957;-82
2021/09/18 04:56:43;;;;;;;;;18.33;17.00;;;;;14.89;75.39;100932.34;5081660;28;46286;-82
2021/09/18 04:59:09;;;;;;;;;18.00;18.00;;;;;14.84;75.13;100929.41;5081731;28;45293;-82
2021/09/18 05:01:34;;;;;;;;;18.00;18.00;;;;;14.86;75.44;100935.41;5080482;28;45346;-82
2021/09/18 05:03:59;;;;;;;;;18.33;17.67;;;;;14.84;75.64;100938.28;5081680;27;45329;-82
2021/09/18 05:06:25;;;;;;;;;18.00;18.00;;;;;14.86;75.47;100943.44;5081333;28;45357;-82
2021/09/18 05:08:50;;;;;;;;;19.00;19.00;;;;;14.84;75.26;100932.91;5079749;28;45678;-83
2021/09/18 05:11:16;;;;;;;;;17.00;16.33;;;;;14.79;75.52;100931.88;5079246;28;45444;-82
2021/09/18 05:13:41;;;;;;;;;16.33;14.33;;;;;14.81;75.66;100937.84;5080681;28;45390;-82
2021/09/18 05:16:06;;;;;;;;;17.67;17.67;;;;;14.84;75.50;100935.59;5079969;28;47175;-82
2021/09/18 05:18:32;;;;;;;;;18.33;18.00;;;;;14.85;75.40;100936.44;5079892;28;45869;-81
2021/09/18 05:20:58;;;;;;;;;15.67;15.67;;;;;14.81;75.55;100932.50;5081493;28;45312;-81
2021/09/18 05:23:23;;;;;;;;;18.33;17.33;;;;;14.80;75.62;100923.66;5080173;28;45295;-82
2021/09/18 05:25:49;;;;;;;;;15.00;15.00;;;;;14.82;75.57;100936.81;5081065;28;45157;-83
2021/09/18 05:28:14;;;;;;;;;17.33;17.33;;;;;14.81;75.84;100936.00;5079796;28;45348;-81
2021/09/18 05:30:39;;;;;;;;;13.67;13.67;;;;;14.81;75.85;100933.31;5068353;28;45295;-82
2021/09/18 05:33:05;;;;;;;;;20.33;19.00;;;;;14.84;75.35;100940.13;5060693;28;45206;-82
2021/09/18 05:35:30;;;;;;;;;17.33;17.00;;;;;14.81;75.29;100930.63;5060445;28;45251;-82
2021/09/18 05:37:56;;;;;;;;;18.33;18.33;;;;;14.86;75.73;100941.59;5060388;28;45252;-81
2021/09/18 05:40:24;;;;;;;;;19.67;18.67;;;;;14.86;75.65;100946.09;5059410;28;45570;-81
2021/09/18 05:42:52;;;;;;;;;18.67;18.00;;;;;14.88;75.32;100946.75;5059232;28;45462;-84
2021/09/18 05:45:17;;;;;;;;;17.00;16.67;;;;;14.91;75.62;100951.69;5059710;28;45290;-84
2021/09/18 05:47:42;;;;;;;;;19.00;18.00;;;;;14.92;75.71;100955.19;5060417;28;45229;-84
2021/09/18 05:50:08;;;;;;;;;20.00;20.00;;;;;14.94;75.67;100953.16;5060772;28;45208;-84
2021/09/18 05:52:34;;;;;;;;;20.67;19.33;;;;;14.93;75.92;100952.31;5060166;28;45481;-83
2021/09/18 05:54:59;;;;;;;;;17.33;16.33;;;;;14.93;75.60;100940.81;5060388;28;45314;-82
2021/09/18 05:57:25;;;;;;;;;17.00;17.00;;;;;14.99;75.66;100951.53;5060567;28;45282;-82
2021/09/18 05:59:50;;;;;;;;;18.67;17.33;;;;;14.97;75.67;100934.81;5060608;28;45312;-82
2021/09/18 06:02:15;;;;;;;;;18.33;18.33;;;;;15.05;75.68;100947.22;5060361;28;45229;-82
2021/09/18 06:04:41;;;;;;;;;17.00;15.33;;;;;15.03;75.69;100949.28;5060440;28;45382;-82
2021/09/18 06:07:06;;;;;;;;;21.33;21.33;;;;;15.11;75.71;100956.31;5060300;28;45559;-82
2021/09/18 06:09:32;;;;;;;;;17.00;15.33;;;;;15.11;75.49;100961.66;5060116;28;45322;-83
2021/09/18 06:11:57;;;;;;;;;20.33;20.33;;;;;15.13;75.51;100956.94;5060179;28;45544;-82
2021/09/18 06:14:22;;;;;;;;;17.67;16.33;;;;;15.17;75.43;100963.53;5059972;28;46061;-82
2021/09/18 06:16:48;;;;;;;;;17.33;17.33;;;;;15.21;75.63;100961.31;5059706;28;45370;-81
2021/09/18 06:19:18;;;;;;;;;17.33;17.33;;;;;15.24;75.44;100960.91;5060166;28;45311;-83
2021/09/18 06:21:43;;;;;;;;;19.00;18.33;;;;;15.30;75.29;100961.94;5059685;28;45933;-81
2021/09/18 06:24:11;;;;;;;;;14.00;14.00;;;;;15.33;75.50;100967.75;5059755;28;46316;-80
2021/09/18 06:26:37;;;;;;;;;15.00;14.00;;;;;15.36;75.15;100964.63;5059339;28;45385;-82
2021/09/18 06:29:04;;;;;;;;;15.67;15.00;;;;;15.35;75.55;100972.88;5058967;28;45500;-79
2021/09/18 06:31:29;;;;;;;;;15.67;15.00;;;;;15.38;75.40;100975.97;5077933;28;45470;-78
2021/09/18 06:33:54;;;;;;;;;17.33;16.33;;;;;15.37;75.87;100963.63;5079828;28;45608;-79
2021/09/18 06:36:20;;;;;;;;;12.33;12.33;;;;;15.41;75.49;100961.34;5077565;28;45320;-79
2021/09/18 06:38:45;;;;;;;;;15.00;15.00;;;;;15.45;75.61;100959.94;5079985;28;45367;-79
2021/09/18 06:41:10;;;;;;;;;15.00;15.00;;;;;15.45;75.40;100961.78;5079016;28;45255;-80
2021/09/18 06:43:36;;;;;;;;;15.00;15.00;;;;;15.46;75.04;100969.63;5079990;28;45334;-81
2021/09/18 06:46:01;;;;;;;;;18.67;18.67;;;;;15.48;75.31;100961.41;5079861;27;45366;-80
2021/09/18 06:48:27;;;;;;;;;16.67;16.67;;;;;15.48;75.12;100972.91;5080141;28;45480;-80
2021/09/18 06:50:52;;;;;;;;;15.00;15.00;;;;;15.43;74.81;100961.16;5080106;28;45243;-80
2021/09/18 06:53:18;;;;;;;;;13.33;13.33;;;;;15.48;75.20;100967.56;5078096;28;46367;-80
2021/09/18 06:55:43;;;;;;;;;17.00;16.00;;;;;15.49;75.35;100963.88;5078436;28;45399;-81
2021/09/18 06:58:09;;;;;;;;;16.67;16.67;;;;;15.53;75.18;100965.13;5080269;28;45251;-80
2021/09/18 07:00:34;;;;;;;;;15.00;15.00;;;;;15.58;75.22;100961.84;5079893;27;45493;-80
2021/09/18 07:02:59;;;;;;;;;18.00;17.00;;;;;15.62;75.07;100965.75;5078488;28;46999;-80
2021/09/18 07:05:25;;;;;;;;;15.00;15.00;;;;;15.62;75.28;100962.22;5079832;28;45240;-80
2021/09/18 07:07:50;;;;;;;;;20.33;19.67;;;;;15.71;75.45;100965.59;5079637;28;45165;-80
2021/09/18 07:10:16;;;;;;;;;17.00;17.00;;;;;15.79;75.15;100965.38;5079810;28;45438;-80
2021/09/18 07:12:41;;;;;;;;;17.33;17.00;;;;;15.85;75.26;100959.19;5079701;28;45573;-81
2021/09/18 07:15:08;;;;;;;;;16.67;14.67;;;;;15.88;74.95;100957.97;5079610;28;45408;-80
2021/09/18 07:17:33;;;;;;;;;19.33;18.33;;;;;15.96;75.28;100963.19;5079938;27;45312;-80
2021/09/18 07:19:59;;;;;;;;;19.33;18.67;;;;;16.05;74.12;100960.28;5079562;28;45347;-80
2021/09/18 07:22:25;;;;;;;;;22.00;20.67;;;;;16.12;74.17;100947.69;5079448;27;45341;-80
2021/09/18 07:24:51;;;;;;;;;14.33;14.33;;;;;16.20;74.22;100952.88;5079530;28;45370;-80
2021/09/18 07:27:17;;;;;;;;;17.33;16.33;;;;;16.33;74.41;100967.28;5079738;28;45329;-81
2021/09/18 07:29:44;;;;;;;;;15.00;14.67;;;;;16.36;74.42;100954.28;5076054;27;45214;-80
2021/09/18 07:32:09;;;;;;;;;18.67;18.67;;;;;16.45;73.70;100954.06;5040977;28;45870;-81
2021/09/18 07:34:35;;;;;;;;;17.00;17.00;;;;;16.57;74.17;100956.94;5058974;28;45225;-82
2021/09/18 07:37:00;;;;;;;;;17.67;17.67;;;;;16.65;74.34;100962.09;5058999;28;45247;-81
2021/09/18 07:39:26;;;;;;;;;16.00;16.00;;;;;16.73;73.51;100953.00;5059029;28;45173;-81
2021/09/18 07:41:52;;;;;;;;;16.33;15.67;;;;;16.86;73.25;100958.34;5057860;28;47101;-81
2021/09/18 07:44:17;;;;;;;;;15.67;15.67;;;;;16.98;73.77;100968.41;5059071;28;45293;-81
2021/09/18 07:46:43;;;;;;;;;17.33;17.33;;;;;17.11;71.80;100965.72;5060222;28;45394;-81
2021/09/18 07:49:08;;;;;;;;;14.67;14.33;;;;;17.22;71.99;100956.16;5062458;28;45279;-81
2021/09/18 07:51:33;;;;;;;;;20.00;20.00;;;;;17.32;71.30;100957.56;5060902;28;46970;-83
2021/09/18 07:53:59;;;;;;;;;18.33;17.67;;;;;17.41;71.96;100958.97;5062169;28;45363;-83
2021/09/18 07:56:24;;;;;;;;;14.33;14.00;;;;;17.56;71.71;100958.66;5062525;28;45618;-83
2021/09/18 07:58:50;;;;;;;;;18.67;18.00;;;;;17.69;71.97;100957.75;5062324;28;45324;-82
2021/09/18 08:01:15;;;;;;;;;18.67;18.00;;;;;17.78;72.08;100958.34;5062237;28;46128;-83
2021/09/18 08:03:40;;;;;;;;;18.33;16.33;;;;;17.87;71.77;100954.31;5062084;28;45360;-83
2021/09/18 08:06:06;;;;;;;;;15.33;15.00;;;;;17.92;71.38;100951.81;5062463;28;45284;-82
2021/09/18 08:08:32;;;;;;;;;13.67;13.33;;;;;18.00;71.42;100958.81;5062342;28;45271;-83
2021/09/18 08:10:57;;;;;;;;;16.00;16.00;;;;;18.11;71.25;100965.34;5061109;28;45978;-82
2021/09/18 08:13:23;;;;;;;;;13.00;13.00;;;;;18.19;71.32;100977.69;5061511;28;45176;-83
2021/09/18 08:15:48;;;;;;;;;13.67;13.67;;;;;18.21;69.94;100967.56;5061392;28;45632;-83
2021/09/18 08:18:14;;;;;;;;;13.33;13.33;;;;;18.31;69.45;100972.44;5061319;28;45211;-83
2021/09/18 08:20:39;;;;;;;;;14.00;14.00;;;;;18.35;69.95;100970.94;5061864;28;45234;-83
2021/09/18 08:23:05;;;;;;;;;12.00;12.00;;;;;18.39;70.18;100972.16;5061696;28;45208;-82
2021/09/18 08:25:30;;;;;;;;;14.67;14.67;;;;;18.41;69.36;100969.25;5061979;28;45360;-83
2021/09/18 08:27:56;;;;;;;;;12.33;11.33;;;;;18.42;69.76;100979.78;5060638;28;46323;-81
2021/09/18 08:30:23;;;;;;;;;15.00;15.00;;;;;18.42;69.43;100984.34;5069311;28;46589;-82
2021/09/18 08:32:49;;;;;;;;;17.00;16.67;;;;;18.41;69.00;100983.50;5081871;28;45301;-79
2021/09/18 08:35:14;;;;;;;;;13.00;13.00;;;;;18.47;69.78;100989.06;5081718;28;45465;-84
2021/09/18 08:37:40;;;;;;;;;16.00;16.00;;;;;18.47;69.87;100994.44;5080249;28;45893;-79
2021/09/18 08:40:06;;;;;;;;;14.33;14.33;;;;;18.47;68.51;100984.50;5081845;27;46008;-80
2021/09/18 08:42:32;;;;;;;;;13.00;13.00;;;;;18.44;68.85;100981.44;5081969;28;45287;-80
2021/09/18 08:44:57;;;;;;;;;14.67;14.67;;;;;18.46;68.20;100982.03;5081893;28;45202;-79
2021/09/18 08:47:23;;;;;;;;;15.00;14.67;;;;;18.50;66.66;100977.84;5076569;28;46190;-80
2021/09/18 08:49:49;;;;;;;;;15.33;13.67;;;;;18.54;67.49;100982.59;5061127;28;46420;-81
2021/09/18 08:52:14;;;;;;;;;14.67;14.67;;;;;18.60;66.88;100983.56;5060573;28;45302;-81
2021/09/18 08:54:41;;;;;;;;;14.00;14.00;;;;;18.62;67.04;100988.72;5060172;28;45353;-82
2021/09/18 08:57:07;;;;;;;;;15.33;15.33;;;;;18.67;66.99;100994.25;5061527;28;45307;-78
2021/09/18 08:59:37;;;;;;;;;15.00;13.00;;;;;18.66;66.45;100981.84;5058833;28;48233;-81
2021/09/18 09:02:17;;;;;;;;;13.00;13.00;;;;;18.68;67.35;100983.25;5060402;28;45651;-82
2021/09/18 09:04:45;;;;;;;;;14.00;14.00;;;;;18.73;67.33;100987.13;5058960;28;45423;-82
2021/09/18 09:07:13;;;;;;;;;11.00;10.67;;;;;18.73;67.48;100987.13;5060228;28;45303;-83
2021/09/18 09:10:02;;;;;;;;;14.00;13.00;;;;;18.71;67.76;100976.63;5056523;28;47440;-83
2021/09/18 09:12:37;;;;;;;;;16.67;15.67;;;;;18.75;67.18;100977.81;5059043;28;45357;-82
2021/09/18 09:15:08;;;;;;;;;13.67;13.00;;;;;18.79;66.49;100981.69;5058480;28;45426;-82
2021/09/18 09:17:36;;;;;;;;;13.00;13.00;;;;;18.86;67.50;100988.88;5060087;28;45322;-78
2021/09/18 09:20:03;;;;;;;;;13.33;13.33;;;;;18.85;66.92;100977.28;5060229;28;45240;-78
2021/09/18 09:22:36;;;;;;;;;13.33;13.33;;;;;18.90;66.84;100977.44;5057658;28;45328;-81
2021/09/18 09:25:02;;;;;;;;;15.00;13.00;;;;;18.90;65.51;100971.22;5059771;28;45209;-83
2021/09/18 09:27:28;;;;;;;;;14.33;13.67;;;;;19.03;65.67;100986.41;5059493;28;46831;-80
2021/09/18 09:29:57;;;;;;;;;13.33;13.33;;;;;19.10;66.16;100970.22;5065675;28;45285;-81
2021/09/18 09:32:39;;;;;;;;;14.00;13.67;;;;;19.17;66.83;100976.34;5080944;28;45242;-81
2021/09/18 09:35:25;;;;;;;;;14.67;14.33;;;;;19.20;66.98;100969.66;5064263;27;45719;-80
2021/09/18 09:37:53;;;;;;;;;13.67;13.67;;;;;19.26;65.84;100969.59;5060346;28;45474;-82
2021/09/18 09:40:41;;;;;;;;;12.67;12.67;;;;;19.38;64.93;100974.19;5059257;28;47712;-83
2021/09/18 09:43:09;;;;;;;;;14.00;13.67;;;;;19.52;64.13;100981.03;5060612;28;45289;-85
2021/09/18 09:45:36;;;;;;;;;10.00;10.00;;;;;19.62;65.20;100988.59;5060831;28;45477;-81
2021/09/18 09:48:10;;;;;;;;;13.67;13.67;;;;;19.68;64.03;100976.06;5059828;28;46332;-81
2021/09/18 09:50:38;;;;;;;;;11.33;11.33;;;;;19.80;63.43;100978.81;5060654;28;45390;-82
2021/09/18 09:53:06;;;;;;;;;10.00;10.00;;;;;19.88;63.40;100965.00;5060171;28;45271;-83
2021/09/18 09:55:36;;;;;;;;;12.67;12.33;;;;;19.97;63.73;100967.34;5059225;28;45523;-82
2021/09/18 09:58:05;;;;;;;;;12.00;10.00;;;;;20.11;63.17;100973.38;5060130;28;45452;-80
2021/09/18 10:00:43;;;;;;;;;13.00;13.00;;;;;20.23;62.58;100971.50;5059674;28;45322;-80
2021/09/18 10:03:09;;;;;;;;;9.00;8.67;;;;;20.37;61.48;100980.19;5058145;28;45434;-81
2021/09/18 10:05:36;;;;;;;;;11.67;11.00;;;;;20.51;62.23;100978.09;5061018;28;45577;-80
2021/09/18 10:08:02;;;;;;;;;13.67;12.00;;;;;20.62;61.54;100971.03;5062138;28;45436;-81
2021/09/18 10:10:29;;;;;;;;;13.00;13.00;;;;;20.77;61.28;100969.75;5060610;28;46563;-81
2021/09/18 10:12:57;;;;;;;;;11.33;11.33;;;;;20.95;61.41;100968.78;5060166;28;45287;-81
2021/09/18 10:15:27;;;;;;;;;11.00;11.00;;;;;21.08;61.57;100978.50;5060938;28;45346;-79
2021/09/18 10:17:55;;;;;;;;;10.33;10.33;;;;;21.21;60.70;100972.00;5060374;28;45441;-82
2021/09/18 10:25:34;;;;;;;;;14.00;14.00;;;;;21.61;59.51;100973.00;5060108;28;45276;-83
2021/09/18 10:28:09;;;;;;;;;11.33;11.33;;;;;21.75;59.67;100970.84;5058590;28;45248;-84
2021/09/18 10:30:55;;;;;;;;;10.33;10.33;;;;;21.90;60.20;100981.09;5070412;28;46192;-84
2021/09/18 10:33:35;;;;;;;;;11.00;10.00;;;;;22.01;58.50;100968.56;5080318;28;45352;-85
2021/09/18 10:36:29;;;;;;;;;11.00;10.00;;;;;22.09;59.04;100971.94;5080198;28;45244;-84
2021/09/18 10:39:19;;;;;;;;;11.00;9.67;;;;;22.20;59.52;100968.31;5079906;28;45227;-83
2021/09/18 10:41:51;;;;;;;;;11.00;10.33;;;;;22.26;57.01;100955.66;5079740;28;46417;-85
2021/09/18 10:44:19;;;;;;;;;7.67;7.67;;;;;22.30;57.43;100952.22;5078562;28;45192;-83
2021/09/18 10:46:47;;;;;;;;;11.00;11.00;;;;;22.41;57.91;100958.59;5079907;28;45244;-83
2021/09/18 10:49:34;;;;;;;;;13.00;10.00;;;;;22.47;57.90;100953.28;5079952;28;45408;-82
2021/09/18 10:52:22;;;;;;;;;12.67;12.67;;;;;22.54;56.44;100957.41;5079289;28;46474;-83
2021/09/18 10:55:05;;;;;;;;;10.00;10.00;;;;;22.57;56.83;100948.81;5079689;28;45341;-79
2021/09/18 10:57:41;;;;;;;;;10.33;9.67;;;;;22.64;57.42;100951.38;5080093;28;45303;-83
2021/09/18 11:00:08;;;;;;;;;10.00;9.67;;;;;22.73;57.52;100942.78;5079877;28;45254;-80
2021/09/18 11:02:33;;;;;;;;;11.67;11.67;;;;;22.82;57.08;100941.28;5079677;28;46080;-81
2021/09/18 11:05:06;;;;;;;;;11.33;10.67;;;;;22.89;57.16;100935.66;5079852;28;45405;-82
2021/09/18 11:07:41;;;;;;;;;10.00;10.00;;;;;22.95;57.93;100934.66;5079755;27;45337;-82
2021/09/18 11:10:12;;;;;;;;;10.67;9.00;;;;;23.01;57.90;100933.66;5079732;28;45268;-79
2021/09/18 11:12:37;;;;;;;;;10.33;10.00;;;;;23.05;56.58;100928.56;5079824;28;45570;-80